Stigler, OK (74462)

7:43 AM CDT on August 22, 2014 (GMT -0500)
Stigler | Change Station
CLOSE
Current Station
Airport
Location: Stigler,
Elevation: 600 ft
Nearby Weather Stations

Elev 600 ft 35.29 °N, 95.09 °W | Updated 28 minutes ago

Clear
Clear
79 °F
Feels Like 79 °F
N
8
Wind Variable Wind from SSW

Today
High -- | Low -- °F
--% Chance of Precip.
Yesterday
High -- | Low -- °F
Precip. -- in
6:45 AM 8:00 PM
Waning Crescent, 8% visible
Pressure 30.02 in
Visibility 9.0 miles
Clouds Clear
Dew Point 66 °F
Humidity 65%
Rainfall 0.00 in
Snow Depth Not available.
UV 0 out of 12
Pollen 9.70 out of 12
Air Quality Not available.
Flu Activity Not available.
METAR KGZL 221215Z AUTO 21007KT 9SM CLR 26/19 A3002 RMK AO2

More Conditions Fewer Conditions

Pressure 30.02 in
Visibility 9.0 miles
Clouds Clear
Dew Point 66 °F
Humidity 65%
Rainfall 0.00 in
Snow Depth Not available.
UV 0 out of 12
Pollen 9.70 out of 12
Air Quality Not available.
Flu Activity Not available.
METAR KGZL 221215Z AUTO 21007KT 9SM CLR 26/19 A3002 RMK AO2

More Conditions Fewer Conditions

10-Day Weather Forecast

Almanac

Astronomy

Aug. 22, 2014 Rise Set
Actual Time 6:45 AM CDT 8:00 PM CDT
Civil Twilight 6:18 AM CDT 8:27 PM CDT
Nautical Twilight 5:47 AM CDT 8:58 PM CDT
Astronomical Twilight 5:14 AM CDT 9:31 PM CDT
Moon 4:11 AM CDT 6:07 PM CDT
Length of Visible Light 14h 08m
Length of Day
13h 15m
Tomorrow will be 2m 2s shorter.
Waning Crescent, 8% of the Moon is Illuminated
Today
Waning Crescent
Aug 25
New
Sep 2
First Quarter
Sep 8
Full
Sep 15
Last Quarter

Today's Extremes

State Highs State Lows

Community

WunderPhotos

Upload Photos

1,746,158 photos uploaded!

WunderBlogs® & News

Nearby

Snow Depth

Station Depth Elevation
No new snow has been reported.

Earthquake Activity

City Distance Mag. Time & Date
No recent earthquake activity has been reported nearby.
Minimum magnitude displayed is 2.5.

Coastal Water Temperatures

Place Temperature
No Stations Reporting

Nearby Weather Stations